Time;durP1;ratioP1;P1;durP2;ratioP2;P2;SDS_P1;SDS_P2;PMS_P1;PMS_P2;Temp;Humidity;BMP_temperature;BMP_pressure;BME280_temperature;BME280_humidity;BME280_pressure;Samples;Min_cycle;Max_cycle;Signal;HPM_P1;HPM_P2
2021/08/08 00:01:13;;;;;;;4.70;1.78;;;;;;;17.54;75.20;96033.01;127924;1093;27635;-83
2021/08/08 00:03:44;;;;;;;2.48;1.83;;;;;;;17.46;75.36;96040.06;127998;1091;28583;-84
2021/08/08 00:06:15;;;;;;;3.45;1.55;;;;;;;17.43;75.32;96037.25;128036;1093;27671;-84
2021/08/08 00:08:47;;;;;;;2.93;2.13;;;;;;;17.45;75.32;96035.83;127989;1093;28381;-83
2021/08/08 00:11:18;;;;;;;3.65;2.48;;;;;;;17.46;75.41;96033.92;127997;1093;25522;-84
2021/08/08 00:13:50;;;;;;;2.45;1.93;;;;;;;17.45;75.29;96022.42;127978;1093;29095;-83
2021/08/08 00:16:21;;;;;;;2.58;1.98;;;;;;;17.46;75.34;96017.84;127978;1093;69247;-84
2021/08/08 00:18:52;;;;;;;2.20;1.70;;;;;;;17.49;75.49;96017.17;127981;1093;24112;-83
2021/08/08 00:21:24;;;;;;;3.10;1.80;;;;;;;17.45;75.21;96013.58;128015;1093;25984;-84
2021/08/08 00:23:55;;;;;;;3.48;2.15;;;;;;;17.35;75.17;96011.38;128032;1093;32148;-83
2021/08/08 00:26:26;;;;;;;3.35;1.98;;;;;;;17.20;75.53;96005.57;127993;1091;27156;-83
2021/08/08 00:28:58;;;;;;;2.48;1.90;;;;;;;17.18;75.64;95999.77;127977;1093;25176;-84
2021/08/08 00:31:29;;;;;;;3.30;1.73;;;;;;;17.21;75.77;95996.42;127973;1093;27397;-84
2021/08/08 00:34:00;;;;;;;2.03;1.53;;;;;;;17.23;75.93;95988.05;128043;1093;24967;-83
2021/08/08 00:36:33;;;;;;;2.58;1.65;;;;;;;17.15;75.60;95981.67;128030;1092;26284;-83
2021/08/08 00:39:16;;;;;;;3.60;1.88;;;;;;;17.19;76.02;95974.55;127993;1093;25408;-83
2021/08/08 00:41:48;;;;;;;3.63;2.00;;;;;;;17.15;75.74;95978.98;128018;1093;23246;-83
2021/08/08 00:44:19;;;;;;;2.08;1.60;;;;;;;17.20;75.77;95970.75;128028;1093;24906;-83
2021/08/08 00:46:50;;;;;;;8.15;2.28;;;;;;;17.19;75.41;95966.52;128037;1093;23368;-84
2021/08/08 00:49:21;;;;;;;5.13;2.28;;;;;;;17.07;75.62;95973.77;128006;1093;25273;-83
2021/08/08 00:51:53;;;;;;;2.45;1.93;;;;;;;16.93;75.90;95984.80;128003;1092;26305;-82
2021/08/08 00:54:24;;;;;;;2.88;1.80;;;;;;;16.93;75.91;95975.99;127995;1093;28728;-83
2021/08/08 00:56:55;;;;;;;2.00;1.63;;;;;;;16.84;76.30;95973.41;128069;1093;25645;-85
2021/08/08 00:59:27;;;;;;;2.90;1.90;;;;;;;16.77;76.27;95970.52;128027;1093;24716;-84
2021/08/08 01:02:01;;;;;;;2.33;2.00;;;;;;;16.82;76.42;95981.77;128045;1093;24040;-83
2021/08/08 01:04:40;;;;;;;2.38;1.70;;;;;;;16.82;76.51;95973.74;128058;1093;25192;-83
2021/08/08 01:07:17;;;;;;;1.75;1.55;;;;;;;16.72;76.91;95973.39;128001;1093;24277;-82
2021/08/08 01:09:53;;;;;;;2.18;1.50;;;;;;;16.65;77.34;95971.25;127994;1093;25481;-85
2021/08/08 01:12:26;;;;;;;2.63;1.80;;;;;;;16.63;77.41;95968.91;127977;1093;24397;-83
2021/08/08 01:14:58;;;;;;;2.83;2.08;;;;;;;16.74;77.14;95973.84;128022;1092;24799;-84
2021/08/08 01:17:29;;;;;;;2.90;1.70;;;;;;;16.80;77.12;95980.55;128011;1093;27797;-83
2021/08/08 01:20:04;;;;;;;1.73;1.38;;;;;;;16.80;76.92;95975.98;128049;1093;22777;-82
2021/08/08 01:22:37;;;;;;;1.90;1.50;;;;;;;16.84;77.14;95981.44;127974;1093;32555;-82
2021/08/08 01:25:11;;;;;;;2.10;1.73;;;;;;;16.75;76.86;95972.72;127965;1093;29774;-83
2021/08/08 01:27:43;;;;;;;2.20;1.68;;;;;;;16.77;77.00;95978.55;128006;1092;26835;-84
2021/08/08 01:30:14;;;;;;;3.33;1.68;;;;;;;16.84;77.14;95974.19;127996;1093;24865;-83
2021/08/08 01:32:46;;;;;;;1.95;1.73;;;;;;;16.80;76.96;95975.98;127969;1093;29561;-83
2021/08/08 01:35:17;;;;;;;4.48;2.43;;;;;;;16.73;77.02;95969.59;128008;1092;23440;-82
2021/08/08 01:37:48;;;;;;;3.15;1.65;;;;;;;16.83;77.15;95975.30;128021;1092;24369;-84
2021/08/08 01:40:25;;;;;;;2.50;1.30;;;;;;;16.78;76.72;95961.38;128075;1092;28590;-83
2021/08/08 01:43:00;;;;;;;1.70;1.60;;;;;;;16.72;76.87;95968.81;127985;1091;49511;-83
2021/08/08 01:45:31;;;;;;;3.25;1.45;;;;;;;16.75;77.20;95965.50;128126;1093;41509;-83
2021/08/08 01:48:05;;;;;;;4.25;1.90;;;;;;;16.73;76.96;95961.56;128150;1093;22776;-82
2021/08/08 01:50:37;;;;;;;2.85;1.85;;;;;;;16.72;77.18;95970.71;128113;1093;30884;-83
2021/08/08 01:53:11;;;;;;;2.30;1.80;;;;;;;16.62;77.25;95961.99;128009;1093;55043;-82
2021/08/08 01:55:42;;;;;;;2.18;1.80;;;;;;;16.60;77.29;95964.19;128031;1093;54055;-83
2021/08/08 01:58:14;;;;;;;2.38;1.73;;;;;;;16.54;77.50;95952.16;128095;1093;22789;-83
2021/08/08 02:00:49;;;;;;;2.03;1.70;;;;;;;16.50;77.54;95953.94;128106;1092;23411;-83
2021/08/08 02:03:20;;;;;;;1.93;1.65;;;;;;;16.45;77.91;95951.45;128017;1093;54842;-84
2021/08/08 02:05:51;;;;;;;2.00;1.83;;;;;;;16.52;77.87;95956.28;128087;1093;51768;-82
2021/08/08 02:08:23;;;;;;;2.58;1.90;;;;;;;16.54;77.95;95954.05;128062;1093;49966;-83
2021/08/08 02:10:54;;;;;;;2.73;1.65;;;;;;;16.63;77.92;95960.88;128107;1092;25493;-83
2021/08/08 02:13:25;;;;;;;3.68;2.03;;;;;;;16.55;77.80;95958.28;128101;1093;27107;-83
2021/08/08 02:15:57;;;;;;;2.80;1.55;;;;;;;16.46;77.86;95961.05;128013;1093;51094;-82
2021/08/08 02:18:28;;;;;;;1.60;1.40;;;;;;;16.46;78.00;95966.39;128039;1090;53831;-83
2021/08/08 02:21:00;;;;;;;2.85;1.85;;;;;;;16.40;78.49;95969.63;128177;1092;26194;-82
2021/08/08 02:23:31;;;;;;;2.93;1.70;;;;;;;16.39;78.20;95971.52;128175;1093;32385;-83
2021/08/08 02:26:03;;;;;;;3.18;2.05;;;;;;;16.24;78.19;95977.50;128156;1093;27909;-83
2021/08/08 02:28:34;;;;;;;1.98;1.78;;;;;;;16.21;78.43;95975.48;128158;1093;45237;-83
2021/08/08 02:31:05;;;;;;;1.88;1.73;;;;;;;16.22;78.30;95971.70;128089;1093;27793;-81
2021/08/08 02:33:37;;;;;;;3.95;1.53;;;;;;;16.25;79.02;95974.48;128119;1093;26121;-82
2021/08/08 02:36:09;;;;;;;5.50;1.85;;;;;;;16.28;78.82;95983.74;127996;1093;71723;-82
2021/08/08 02:38:41;;;;;;;2.38;1.90;;;;;;;16.32;78.91;95973.94;128044;1093;54442;-84
2021/08/08 02:41:12;;;;;;;1.85;1.55;;;;;;;16.41;78.68;95988.02;128080;1091;26062;-84
2021/08/08 02:43:43;;;;;;;2.75;1.90;;;;;;;16.33;78.64;95994.25;128084;1093;25412;-83
2021/08/08 02:46:15;;;;;;;1.90;1.68;;;;;;;16.38;78.84;95990.58;128061;1091;46549;-83
2021/08/08 02:48:46;;;;;;;4.78;1.53;;;;;;;16.44;78.92;95987.35;128005;1093;45144;-83
2021/08/08 02:51:17;;;;;;;1.90;1.53;;;;;;;16.50;78.86;95978.02;128051;1092;65635;-83
2021/08/08 02:53:49;;;;;;;2.40;1.75;;;;;;;16.51;78.42;95984.94;128088;1093;26242;-83
2021/08/08 02:56:20;;;;;;;3.03;1.88;;;;;;;16.53;78.37;95982.70;128068;1093;49845;-83
2021/08/08 02:58:52;;;;;;;2.80;1.95;;;;;;;16.58;78.14;95990.51;127991;1092;55922;-83
2021/08/08 03:01:23;;;;;;;3.83;2.25;;;;;;;16.68;77.96;95991.23;128146;1093;24650;-83
2021/08/08 03:03:54;;;;;;;2.05;1.85;;;;;;;16.72;77.99;95997.48;128075;1093;25472;-82
2021/08/08 03:06:25;;;;;;;1.65;1.55;;;;;;;16.65;77.61;96006.04;128094;1093;24971;-82
2021/08/08 03:08:57;;;;;;;2.30;1.70;;;;;;;16.52;78.01;96012.47;128056;1090;26377;-83
2021/08/08 03:11:28;;;;;;;2.00;1.80;;;;;;;16.44;78.24;96016.78;128094;1093;50077;-83
2021/08/08 03:13:59;;;;;;;2.13;1.93;;;;;;;16.39;78.50;96032.27;128063;1090;54459;-83
2021/08/08 03:16:31;;;;;;;4.70;1.98;;;;;;;16.37;78.75;96031.82;128102;1093;49229;-82
2021/08/08 03:19:02;;;;;;;3.58;1.95;;;;;;;16.34;78.90;96043.97;128105;1092;55236;-83
2021/08/08 03:21:34;;;;;;;2.05;1.70;;;;;;;16.29;79.03;96044.93;128132;1093;51105;-82
2021/08/08 03:24:06;;;;;;;2.73;1.60;;;;;;;16.36;78.80;96057.80;128064;1093;62683;-82
2021/08/08 03:26:38;;;;;;;2.80;1.95;;;;;;;16.27;79.31;96055.18;125892;1092;2605789;-82
2021/08/08 03:29:10;;;;;;;2.33;1.75;;;;;;;16.30;79.11;96064.44;125541;1093;2698622;-83
2021/08/08 03:31:42;;;;;;;2.48;1.80;;;;;;;16.21;79.47;96061.07;127930;1093;55888;-83
2021/08/08 03:34:13;;;;;;;2.65;1.88;;;;;;;16.21;79.86;96069.88;128022;1093;60629;-83
2021/08/08 03:36:44;;;;;;;4.75;2.13;;;;;;;16.17;79.67;96062.81;128063;1093;45358;-83
2021/08/08 03:39:16;;;;;;;2.28;1.83;;;;;;;16.24;79.85;96065.76;128101;1092;68292;-82
2021/08/08 03:41:48;;;;;;;3.75;1.98;;;;;;;16.18;79.99;96067.83;128059;1092;59326;-84
2021/08/08 03:44:19;;;;;;;2.25;1.83;;;;;;;16.18;80.57;96077.75;128009;1093;66570;-83
2021/08/08 03:46:54;;;;;;;3.28;1.70;;;;;;;16.25;80.57;96075.34;128066;1093;66197;-83
2021/08/08 03:49:25;;;;;;;2.13;1.93;;;;;;;16.31;80.58;96080.16;128008;1093;62511;-82
2021/08/08 03:51:57;;;;;;;3.20;1.93;;;;;;;16.30;80.98;96081.27;128051;1092;57811;-83
2021/08/08 03:54:30;;;;;;;2.20;1.67;;;;;;;16.38;80.75;96082.31;128044;1093;57401;-83
2021/08/08 03:57:01;;;;;;;3.48;1.70;;;;;;;16.33;79.77;96085.20;128148;1092;43099;-83
2021/08/08 03:59:34;;;;;;;2.85;2.18;;;;;;;16.27;80.28;96081.92;128045;1093;64244;-83
2021/08/08 04:02:16;;;;;;;2.23;1.90;;;;;;;16.31;80.41;96088.18;127962;1091;92844;-83
2021/08/08 04:04:47;;;;;;;3.25;1.85;;;;;;;16.34;80.71;96092.12;128052;1092;49826;-83
2021/08/08 04:07:18;;;;;;;3.20;2.10;;;;;;;16.44;80.68;96088.23;126300;1093;2053004;-83
2021/08/08 04:09:50;;;;;;;3.05;1.88;;;;;;;16.58;80.52;96094.88;128027;1092;58955;-83
2021/08/08 04:12:21;;;;;;;2.25;1.83;;;;;;;16.74;80.57;96094.28;128119;1091;47837;-83
2021/08/08 04:14:53;;;;;;;2.10;1.90;;;;;;;16.84;80.48;96104.59;128055;1092;38196;-83
2021/08/08 04:17:24;;;;;;;2.45;1.58;;;;;;;16.94;80.52;96114.11;127949;1093;91823;-84
2021/08/08 04:19:55;;;;;;;2.73;1.70;;;;;;;17.02;80.67;96116.68;128112;1091;24590;-83
2021/08/08 04:22:27;;;;;;;2.98;1.98;;;;;;;17.07;80.50;96121.84;128077;1093;23690;-84
2021/08/08 04:24:58;;;;;;;2.15;1.95;;;;;;;17.16;80.67;96127.88;127997;1092;30813;-84
2021/08/08 04:27:29;;;;;;;2.93;1.95;;;;;;;17.25;80.85;96130.47;128011;1090;27254;-83
2021/08/08 04:30:01;;;;;;;3.40;1.70;;;;;;;17.35;80.93;96130.05;128044;1093;26631;-83
2021/08/08 04:32:32;;;;;;;5.60;2.10;;;;;;;17.47;80.30;96132.75;128041;1090;26849;-84
2021/08/08 04:35:04;;;;;;;2.25;1.68;;;;;;;17.57;80.29;96136.86;128096;1093;24074;-84
2021/08/08 04:37:35;;;;;;;3.78;2.03;;;;;;;17.64;79.90;96137.11;127994;1093;23879;-82
2021/08/08 04:40:08;;;;;;;2.20;1.90;;;;;;;17.63;79.97;96135.55;128031;1093;26260;-83
2021/08/08 04:42:40;;;;;;;3.48;2.28;;;;;;;17.63;80.52;96143.59;128018;1092;26287;-83
2021/08/08 04:45:12;;;;;;;5.90;2.50;;;;;;;17.57;80.58;96144.91;128018;1092;23944;-84
2021/08/08 04:47:44;;;;;;;2.18;1.90;;;;;;;17.61;81.22;96169.95;128037;1093;34718;-84
2021/08/08 04:50:15;;;;;;;2.30;1.80;;;;;;;17.62;81.19;96173.41;127958;1093;37639;-84
2021/08/08 04:52:48;;;;;;;2.25;1.83;;;;;;;17.70;80.31;96178.68;128011;1093;29189;-84
2021/08/08 04:55:19;;;;;;;2.48;2.05;;;;;;;17.84;79.94;96193.66;127964;1093;29037;-84
2021/08/08 04:57:50;;;;;;;2.40;2.15;;;;;;;17.95;79.78;96190.20;128068;1093;25985;-84
2021/08/08 05:00:22;;;;;;;3.13;2.10;;;;;;;18.06;79.46;96179.81;127984;1093;25801;-84
2021/08/08 05:02:53;;;;;;;4.83;2.60;;;;;;;18.28;79.17;96197.33;127994;1093;26290;-84
2021/08/08 05:05:25;;;;;;;2.83;2.00;;;;;;;18.56;78.92;96208.13;128011;1093;23964;-84
2021/08/08 05:07:56;;;;;;;4.98;2.13;;;;;;;18.62;78.55;96207.58;127996;1093;24000;-83
2021/08/08 05:10:27;;;;;;;3.25;2.35;;;;;;;18.76;78.31;96217.98;128019;1093;25939;-83
2021/08/08 05:12:59;;;;;;;2.48;2.28;;;;;;;18.85;78.63;96218.60;127982;1093;40265;-83
2021/08/08 05:15:31;;;;;;;3.13;2.38;;;;;;;18.89;78.24;96211.45;128020;1093;26251;-84
2021/08/08 05:18:03;;;;;;;5.75;2.35;;;;;;;18.89;78.38;96218.73;128026;1093;25884;-83
2021/08/08 05:20:34;;;;;;;3.40;2.40;;;;;;;18.91;78.55;96214.56;128047;1093;27882;-84
2021/08/08 05:23:05;;;;;;;3.68;2.40;;;;;;;18.88;78.32;96236.75;128038;1093;24979;-82
2021/08/08 05:25:37;;;;;;;3.60;2.13;;;;;;;18.88;78.46;96235.97;128016;1092;22860;-82
2021/08/08 05:28:08;;;;;;;4.05;2.35;;;;;;;18.90;78.51;96242.55;128001;1093;29206;-84
2021/08/08 05:30:39;;;;;;;1.80;1.40;;;;;;;18.87;78.47;96239.77;128010;1092;25155;-83
2021/08/08 05:33:10;;;;;;;4.15;1.73;;;;;;;18.88;78.29;96244.80;128004;1093;23351;-83
2021/08/08 05:35:42;;;;;;;1.75;1.38;;;;;;;18.92;77.95;96251.05;127965;1093;24024;-84
2021/08/08 05:38:13;;;;;;;2.63;1.50;;;;;;;18.92;77.80;96259.11;128020;1093;40993;-83
2021/08/08 05:40:45;;;;;;;1.13;1.00;;;;;;;18.93;77.37;96255.30;128014;1093;29689;-84
2021/08/08 05:43:16;;;;;;;1.35;1.00;;;;;;;18.93;77.18;96263.36;128028;1091;26415;-84
2021/08/08 05:45:48;;;;;;;1.20;0.93;;;;;;;18.92;76.76;96277.13;128032;1093;22793;-84
2021/08/08 05:48:19;;;;;;;1.65;1.43;;;;;;;18.89;76.56;96275.13;128012;1092;31108;-83
2021/08/08 05:50:50;;;;;;;1.35;1.20;;;;;;;18.85;76.19;96280.38;127967;1093;49320;-82
2021/08/08 05:53:22;;;;;;;1.78;1.13;;;;;;;18.84;76.47;96286.09;128009;1092;31397;-83
2021/08/08 05:55:53;;;;;;;1.55;1.00;;;;;;;18.82;76.02;96294.49;127984;1092;27038;-83
2021/08/08 05:58:24;;;;;;;1.20;1.08;;;;;;;18.80;75.93;96288.68;128027;1093;25197;-83
2021/08/08 06:00:56;;;;;;;1.75;0.90;;;;;;;18.81;75.73;96295.61;127975;1093;24225;-83
2021/08/08 06:03:27;;;;;;;1.23;1.00;;;;;;;18.81;75.56;96300.20;127996;1093;25684;-84
2021/08/08 06:05:59;;;;;;;2.58;1.15;;;;;;;18.79;75.43;96305.92;128002;1093;26273;-83
2021/08/08 06:08:30;;;;;;;1.40;0.90;;;;;;;18.78;74.93;96304.35;128077;1093;25735;-83
2021/08/08 06:11:01;;;;;;;1.63;1.03;;;;;;;18.77;74.99;96302.79;128055;1093;25584;-83
2021/08/08 06:13:33;;;;;;;2.03;1.03;;;;;;;18.73;74.28;96309.97;128064;1093;27072;-83
2021/08/08 06:16:05;;;;;;;1.60;1.00;;;;;;;18.67;74.54;96311.30;128036;1091;52447;-83
2021/08/08 06:18:41;;;;;;;2.58;1.20;;;;;;;18.63;74.56;96315.75;128046;1093;28104;-83
2021/08/08 06:21:12;;;;;;;2.60;1.10;;;;;;;18.62;74.64;96316.88;128100;1093;27229;-83
2021/08/08 06:23:44;;;;;;;1.38;0.85;;;;;;;18.63;74.76;96313.88;128098;1093;26257;-83
2021/08/08 06:26:15;;;;;;;1.33;0.93;;;;;;;18.66;74.99;96315.89;128098;1093;25682;-83
2021/08/08 06:28:47;;;;;;;2.23;0.88;;;;;;;18.67;74.75;96328.19;128076;1093;38673;-83
2021/08/08 06:31:18;;;;;;;1.48;0.95;;;;;;;18.67;74.73;96335.47;128080;1093;28065;-84
2021/08/08 06:33:49;;;;;;;1.60;0.97;;;;;;;18.67;74.51;96333.56;128061;1093;25564;-82
2021/08/08 06:36:21;;;;;;;1.00;0.90;;;;;;;18.66;74.28;96347.33;128024;1091;25881;-84
2021/08/08 06:38:52;;;;;;;1.10;0.73;;;;;;;18.62;74.02;96351.78;128016;1092;27815;-83
2021/08/08 06:41:33;;;;;;;1.28;0.90;;;;;;;18.61;73.93;96360.95;128021;1093;25344;-83
2021/08/08 06:44:05;;;;;;;1.48;1.10;;;;;;;18.60;74.31;96360.17;128065;1093;28792;-83
2021/08/08 06:46:36;;;;;;;1.38;0.90;;;;;;;18.63;74.09;96372.95;127974;1093;27154;-83
2021/08/08 06:49:08;;;;;;;2.53;1.08;;;;;;;18.65;73.88;96369.93;127964;1093;35819;-85
2021/08/08 06:51:39;;;;;;;2.58;1.08;;;;;;;18.65;73.44;96378.77;127986;1093;27571;-84
2021/08/08 06:54:12;;;;;;;1.05;0.90;;;;;;;18.65;73.27;96383.36;127973;1093;27413;-84
2021/08/08 06:56:43;;;;;;;1.50;1.30;;;;;;;18.64;73.57;96377.20;127986;1093;25506;-86
2021/08/08 06:59:29;;;;;;;2.78;1.23;;;;;;;18.65;73.40;96388.72;128047;1093;54979;-83
2021/08/08 07:02:01;;;;;;;3.45;0.88;;;;;;;18.63;73.56;96394.44;128062;1093;29044;-83
2021/08/08 07:04:32;;;;;;;1.10;0.80;;;;;;;18.62;73.38;96394.73;128075;1093;27941;-84
2021/08/08 07:07:04;;;;;;;1.93;1.18;;;;;;;18.61;73.61;96403.91;128116;1092;22903;-83
2021/08/08 07:09:35;;;;;;;1.65;1.08;;;;;;;18.59;73.66;96403.47;128117;1093;26975;-85
2021/08/08 07:12:08;;;;;;;0.98;0.83;;;;;;;18.58;73.73;96412.62;128009;1092;29739;-84
2021/08/08 07:14:39;;;;;;;1.38;1.20;;;;;;;18.53;73.75;96412.84;127994;1093;24305;-83
2021/08/08 07:17:11;;;;;;;1.23;0.98;;;;;;;18.54;74.14;96420.56;128031;1093;28525;-83
2021/08/08 07:19:42;;;;;;;2.18;1.23;;;;;;;18.54;74.82;96425.14;128015;1093;29166;-84
2021/08/08 07:22:15;;;;;;;2.15;0.90;;;;;;;18.55;74.65;96440.92;128020;1092;26673;-84
2021/08/08 07:24:51;;;;;;;1.05;0.83;;;;;;;18.54;74.25;96435.89;128015;1093;24039;-85
2021/08/08 07:27:23;;;;;;;1.18;0.95;;;;;;;18.60;75.06;96442.63;128086;1093;24388;-85
2021/08/08 07:29:55;;;;;;;1.25;1.00;;;;;;;18.66;75.38;96438.63;127993;1092;23116;-84
2021/08/08 07:32:27;;;;;;;1.05;0.95;;;;;;;18.63;74.74;96445.45;128021;1092;80181;-86
2021/08/08 07:35:00;;;;;;;1.20;0.90;;;;;;;18.59;75.17;96438.38;127981;1093;33287;-85
2021/08/08 07:37:32;;;;;;;1.38;1.10;;;;;;;18.64;75.70;96451.60;128075;1093;25447;-85
2021/08/08 07:40:03;;;;;;;1.85;0.80;;;;;;;18.70;76.31;96444.89;128088;1093;29650;-85
2021/08/08 07:42:35;;;;;;;1.30;0.70;;;;;;;18.72;76.36;96444.55;128086;1093;23315;-85
2021/08/08 07:45:08;;;;;;;2.95;0.95;;;;;;;18.72;76.37;96437.30;128056;1093;23023;-85
2021/08/08 07:47:40;;;;;;;1.03;0.85;;;;;;;18.82;76.50;96434.16;128046;1093;25878;-86
2021/08/08 07:50:14;;;;;;;1.40;0.73;;;;;;;18.93;76.43;96440.66;127994;1091;25704;-84
2021/08/08 07:52:46;;;;;;;1.98;1.10;;;;;;;19.25;76.61;96446.23;128010;1093;28549;-86
2021/08/08 07:55:17;;;;;;;1.55;1.20;;;;;;;19.78;76.91;96447.06;128113;1093;26375;-86
2021/08/08 07:57:49;;;;;;;1.28;0.90;;;;;;;20.23;75.23;96443.28;128056;1092;28188;-85
2021/08/08 08:00:21;;;;;;;1.13;0.95;;;;;;;20.47;74.23;96448.58;127986;1093;26421;-87
2021/08/08 08:02:53;;;;;;;1.25;0.88;;;;;;;20.51;73.19;96451.35;128032;1093;26293;-86
2021/08/08 08:05:24;;;;;;;0.83;0.78;;;;;;;20.38;71.55;96453.30;127981;1093;27736;-85
2021/08/08 08:07:56;;;;;;;1.03;0.90;;;;;;;20.21;70.90;96440.16;128060;1092;25385;-87
2021/08/08 08:10:29;;;;;;;1.55;0.83;;;;;;;20.26;70.54;96450.67;128027;1092;26283;-86
2021/08/08 08:13:01;;;;;;;0.80;0.73;;;;;;;20.16;69.15;96458.13;128070;1093;27037;-86
2021/08/08 08:15:32;;;;;;;1.23;0.90;;;;;;;19.99;69.09;96461.13;128081;1093;30121;-85
2021/08/08 08:18:04;;;;;;;1.35;0.95;;;;;;;19.82;69.40;96454.09;128134;1093;32915;-86
2021/08/08 08:20:37;;;;;;;1.30;1.03;;;;;;;19.81;70.00;96446.37;127987;1092;28754;-82
2021/08/08 08:23:09;;;;;;;1.05;0.63;;;;;;;19.75;69.53;96447.75;128042;1092;26907;-85
2021/08/08 08:25:42;;;;;;;1.17;0.90;;;;;;;19.78;70.51;96453.22;128028;1093;27435;-86
2021/08/08 08:28:14;;;;;;;1.28;0.90;;;;;;;20.01;70.89;96453.48;128043;1091;23501;-86
2021/08/08 08:30:45;;;;;;;1.20;0.95;;;;;;;20.24;70.28;96437.55;128108;1092;40680;-85
2021/08/08 08:33:17;;;;;;;1.15;0.90;;;;;;;20.37;69.93;96428.28;128544;1092;29721;-86
2021/08/08 08:35:48;;;;;;;3.08;1.10;;;;;;;20.50;70.16;96442.50;128558;1093;27872;-86
2021/08/08 08:38:20;;;;;;;1.33;1.00;;;;;;;20.72;70.22;96441.91;128491;1091;26832;-86
2021/08/08 08:40:52;;;;;;;1.08;0.90;;;;;;;21.02;69.59;96436.07;128478;1092;26247;-87
2021/08/08 08:43:26;;;;;;;1.03;0.70;;;;;;;21.11;68.01;96433.95;128553;1092;23521;-89
2021/08/08 08:46:07;;;;;;;1.00;0.80;;;;;;;21.18;67.93;96436.83;127988;1092;25067;-85
2021/08/08 08:48:43;;;;;;;1.05;0.70;;;;;;;21.51;68.29;96435.64;128088;1091;36921;-85
2021/08/08 08:51:17;;;;;;;1.68;1.00;;;;;;;21.84;67.45;96433.27;128050;1093;27174;-85
2021/08/08 08:53:49;;;;;;;1.45;0.90;;;;;;;22.26;67.05;96447.98;128117;1093;23796;-87
2021/08/08 08:56:22;;;;;;;2.00;0.98;;;;;;;22.66;66.63;96453.73;127972;1093;70150;-86
2021/08/08 08:58:53;;;;;;;2.23;1.00;;;;;;;22.97;65.28;96451.95;127976;1092;26284;-87
2021/08/08 09:01:25;;;;;;;1.25;1.00;;;;;;;23.35;64.73;96456.38;128203;1093;22789;-86
2021/08/08 09:03:57;;;;;;;0.85;0.73;;;;;;;23.85;63.47;96465.22;128050;1092;23314;-87
2021/08/08 09:06:29;;;;;;;0.80;0.60;;;;;;;24.16;62.24;96464.04;128063;1090;22919;-86
2021/08/08 09:09:01;;;;;;;1.00;0.73;;;;;;;24.33;62.20;96468.91;128069;1093;22788;-87
2021/08/08 09:11:42;;;;;;;0.80;0.70;;;;;;;24.60;61.19;96476.92;128142;1093;23975;-87
2021/08/08 09:14:16;;;;;;;1.18;0.80;;;;;;;24.63;60.93;96466.11;128023;1093;26401;-88
2021/08/08 09:16:52;;;;;;;1.15;0.80;;;;;;;24.62;59.90;96472.68;128031;1093;25090;-87
2021/08/08 09:19:26;;;;;;;1.25;0.83;;;;;;;24.55;59.56;96465.27;128076;1093;30603;-88
2021/08/08 09:22:00;;;;;;;2.00;1.20;;;;;;;24.47;59.75;96466.34;127995;1092;25743;-87
2021/08/08 09:24:35;;;;;;;1.30;0.95;;;;;;;24.33;59.59;96463.48;128127;1091;24528;-87
2021/08/08 09:27:10;;;;;;;1.13;1.00;;;;;;;23.98;59.62;96474.67;128007;1093;26391;-85
2021/08/08 09:29:43;;;;;;;1.05;0.95;;;;;;;23.83;59.30;96472.94;128082;1092;26223;-86
2021/08/08 09:32:15;;;;;;;1.40;1.00;;;;;;;23.72;59.84;96459.25;128091;1093;28235;-86
2021/08/08 09:34:52;;;;;;;1.98;0.80;;;;;;;23.54;59.60;96461.70;128196;1093;32927;-86
2021/08/08 09:37:24;;;;;;;1.18;0.90;;;;;;;23.55;60.45;96457.84;128124;1093;27068;-87
2021/08/08 09:39:56;;;;;;;1.10;1.00;;;;;;;23.58;60.38;96450.94;127978;1093;27332;-86
2021/08/08 09:42:30;;;;;;;2.10;1.13;;;;;;;23.53;60.27;96459.36;128038;1093;25380;-88
2021/08/08 09:45:04;;;;;;;1.40;0.90;;;;;;;23.56;60.35;96464.81;128114;1093;25166;-87
2021/08/08 09:47:43;;;;;;;1.00;0.83;;;;;;;23.59;60.72;96453.28;128039;1093;23779;-84
2021/08/08 09:50:16;;;;;;;1.08;0.78;;;;;;;23.67;59.75;96457.66;127988;1092;23192;-88
2021/08/08 09:52:55;;;;;;;0.85;0.80;;;;;;;23.69;60.65;96447.23;128022;1093;27674;-87
2021/08/08 09:55:29;;;;;;;2.58;0.90;;;;;;;23.69;60.69;96449.94;128032;1093;30575;-89
2021/08/08 09:58:02;;;;;;;0.70;0.65;;;;;;;23.78;61.22;96444.23;127977;1092;46597;-87
2021/08/08 10:00:36;;;;;;;0.95;0.73;;;;;;;23.71;60.14;96435.26;128104;1093;26191;-88
2021/08/08 10:03:09;;;;;;;1.85;0.98;;;;;;;23.64;60.98;96436.71;128039;1093;28649;-86
2021/08/08 10:05:43;;;;;;;1.73;0.90;;;;;;;23.69;59.22;96439.12;128035;1093;25990;-87
2021/08/08 10:08:16;;;;;;;1.23;1.00;;;;;;;23.65;59.71;96448.34;128074;1093;28171;-88
2021/08/08 10:10:49;;;;;;;1.40;0.83;;;;;;;23.75;60.51;96458.52;128025;1093;33226;-88
2021/08/08 10:13:36;;;;;;;1.35;0.90;;;;;;;23.81;59.35;96458.98;128101;1093;32068;-87
2021/08/08 10:16:10;;;;;;;0.80;0.80;;;;;;;23.87;59.03;96468.33;128050;1093;25421;-87
2021/08/08 10:18:45;;;;;;;0.93;0.80;;;;;;;23.84;59.33;96477.20;128191;1092;35773;-89
2021/08/08 10:21:16;;;;;;;1.18;0.85;;;;;;;23.87;58.00;96479.16;128484;1093;24751;-85
2021/08/08 10:23:51;;;;;;;1.48;0.83;;;;;;;23.90;58.92;96473.01;128334;1092;40731;-84
2021/08/08 10:26:23;;;;;;;0.93;0.70;;;;;;;24.04;59.45;96478.59;128508;1092;29344;-85
2021/08/08 10:28:56;;;;;;;0.63;0.50;;;;;;;24.17;58.39;96469.08;128414;1093;27297;-84
2021/08/08 10:31:29;;;;;;;0.90;0.85;;;;;;;24.16;58.01;96467.53;128523;1092;27128;-85
2021/08/08 10:34:02;;;;;;;2.00;0.80;;;;;;;24.08;57.80;96465.13;128249;1092;29212;-85
2021/08/08 10:36:36;;;;;;;0.90;0.75;;;;;;;24.05;58.10;96480.16;128242;1092;26408;-85
2021/08/08 10:39:16;;;;;;;1.13;0.80;;;;;;;24.06;58.32;96470.88;127938;1093;49938;-84
2021/08/08 10:42:01;;;;;;;2.43;1.00;;;;;;;24.08;58.05;96470.54;128007;1093;25006;-84
2021/08/08 10:44:33;;;;;;;1.10;0.65;;;;;;;24.11;58.02;96467.87;128069;1093;33449;-85
2021/08/08 10:47:04;;;;;;;0.80;0.70;;;;;;;24.23;58.41;96458.72;128061;1093;27267;-85
2021/08/08 10:49:36;;;;;;;1.05;0.90;;;;;;;24.21;57.09;96461.80;128085;1092;25575;-82
2021/08/08 10:52:10;;;;;;;0.93;0.60;;;;;;;24.22;57.48;96457.16;127964;1093;26346;-84
2021/08/08 10:54:46;;;;;;;0.75;0.68;;;;;;;24.25;57.18;96462.61;127933;1093;25591;-84
2021/08/08 10:57:19;;;;;;;1.95;0.83;;;;;;;24.23;56.83;96467.63;128014;1093;25774;-84
2021/08/08 10:59:54;;;;;;;1.00;0.80;;;;;;;24.22;57.29;96473.41;127974;1093;27881;-84
2021/08/08 11:02:30;;;;;;;0.63;0.50;;;;;;;24.36;58.14;96478.24;128031;1093;25572;-84
2021/08/08 11:05:17;;;;;;;1.28;0.50;;;;;;;24.40;57.07;96476.34;127970;1092;28568;-83
2021/08/08 11:07:50;;;;;;;1.60;0.70;;;;;;;24.41;56.36;96480.61;127973;1093;24336;-84
2021/08/08 11:10:29;;;;;;;0.60;0.60;;;;;;;24.38;55.07;96470.52;127986;1093;23507;-85
2021/08/08 11:13:00;;;;;;;0.90;0.60;;;;;;;24.30;55.12;96468.88;127932;1093;24811;-84
2021/08/08 11:15:38;;;;;;;1.05;0.83;;;;;;;24.33;55.25;96468.91;128051;1093;26253;-84
2021/08/08 11:18:09;;;;;;;0.93;0.60;;;;;;;24.35;55.15;96479.36;127937;1091;31606;-84
2021/08/08 11:20:42;;;;;;;1.38;0.55;;;;;;;24.48;56.81;96472.54;127966;1093;25515;-84
2021/08/08 11:23:14;;;;;;;0.80;0.60;;;;;;;24.63;56.42;96478.88;128068;1093;24926;-84
2021/08/08 11:25:46;;;;;;;1.70;0.60;;;;;;;24.70;56.10;96479.74;127917;1092;73388;-86
2021/08/08 11:28:20;;;;;;;1.10;0.68;;;;;;;24.81;55.37;96477.14;127980;1093;32491;-84
2021/08/08 11:30:52;;;;;;;1.23;0.70;;;;;;;24.80;54.77;96481.00;127923;1093;29249;-83
2021/08/08 11:33:27;;;;;;;1.23;0.80;;;;;;;24.86;54.94;96484.92;128004;1090;26083;-84
2021/08/08 11:36:02;;;;;;;1.05;0.90;;;;;;;24.76;53.30;96483.66;127964;1093;27859;-84
2021/08/08 11:38:34;;;;;;;1.13;0.80;;;;;;;24.57;51.71;96490.07;128015;1093;27356;-84
2021/08/08 11:41:05;;;;;;;0.50;0.50;;;;;;;24.37;51.94;96486.00;128068;1092;25460;-84
2021/08/08 11:43:37;;;;;;;1.48;0.88;;;;;;;24.22;52.03;96490.45;127970;1093;30928;-85
2021/08/08 11:46:08;;;;;;;1.13;0.80;;;;;;;24.21;52.44;96494.31;127975;1092;28939;-84
2021/08/08 11:48:39;;;;;;;1.25;0.83;;;;;;;24.29;52.04;96500.57;127978;1090;28616;-84